sensor_id;sensor_type;location;lat;lon;timestamp;pressure;altitude;pressure_sealevel;temperature;humidity
66880;BME280;53789;51.392;10.234;2023-04-19T00:00:17;99246.06;;;8.92;66.41
66880;BME280;53789;51.392;10.234;2023-04-19T00:00:37;99244.41;;;8.91;65.69
66880;BME280;53789;51.392;10.234;2023-04-19T00:00:58;99240.56;;;8.92;64.79
66880;BME280;53789;51.392;10.234;2023-04-19T00:01:18;99239.75;;;8.91;65.68
66880;BME280;53789;51.392;10.234;2023-04-19T00:01:38;99239.75;;;8.91;65.07
66880;BME280;53789;51.392;10.234;2023-04-19T00:01:58;99242.75;;;8.90;65.05
66880;BME280;53789;51.392;10.234;2023-04-19T00:02:19;99247.97;;;8.91;65.71
66880;BME280;53789;51.392;10.234;2023-04-19T00:02:39;99247.16;;;8.91;65.35
66880;BME280;53789;51.392;10.234;2023-04-19T00:03:00;99240.03;;;8.90;64.48
66880;BME280;53789;51.392;10.234;2023-04-19T00:03:21;99245.78;;;8.88;65.37
66880;BME280;53789;51.392;10.234;2023-04-19T00:03:41;99238.63;;;8.87;64.37
66880;BME280;53789;51.392;10.234;2023-04-19T00:04:01;99242.50;;;8.86;64.17
66880;BME280;53789;51.392;10.234;2023-04-19T00:04:22;99244.13;;;8.87;64.84
66880;BME280;53789;51.392;10.234;2023-04-19T00:04:42;99238.63;;;8.87;65.32
66880;BME280;53789;51.392;10.234;2023-04-19T00:05:02;99244.13;;;8.87;66.29
66880;BME280;53789;51.392;10.234;2023-04-19T00:05:23;99241.38;;;8.87;65.91
66880;BME280;53789;51.392;10.234;2023-04-19T00:05:43;99245.25;;;8.86;66.98
66880;BME280;53789;51.392;10.234;2023-04-19T00:06:04;99243.59;;;8.85;66.52
66880;BME280;53789;51.392;10.234;2023-04-19T00:06:24;99245.25;;;8.86;66.03
66880;BME280;53789;51.392;10.234;2023-04-19T00:06:44;99241.38;;;8.87;65.39
66880;BME280;53789;51.392;10.234;2023-04-19T00:07:05;99239.75;;;8.86;66.57
66880;BME280;53789;51.392;10.234;2023-04-19T00:07:25;99238.91;;;8.85;66.57
66880;BME280;53789;51.392;10.234;2023-04-19T00:07:45;99243.31;;;8.87;66.04
66880;BME280;53789;51.392;10.234;2023-04-19T00:08:06;99238.91;;;8.85;66.45
66880;BME280;53789;51.392;10.234;2023-04-19T00:08:26;99234.28;;;8.86;66.05
66880;BME280;53789;51.392;10.234;2023-04-19T00:08:47;99235.06;;;8.87;65.04
66880;BME280;53789;51.392;10.234;2023-04-19T00:09:08;99240.56;;;8.87;65.69
66880;BME280;53789;51.392;10.234;2023-04-19T00:09:28;99240.03;;;8.84;65.48
66880;BME280;53789;51.392;10.234;2023-04-19T00:09:48;99235.34;;;8.85;65.83
66880;BME280;53789;51.392;10.234;2023-04-19T00:10:09;99236.44;;;8.84;66.03
66880;BME280;53789;51.392;10.234;2023-04-19T00:10:29;99238.09;;;8.85;65.87
66880;BME280;53789;51.392;10.234;2023-04-19T00:10:49;99240.03;;;8.84;65.42
66880;BME280;53789;51.392;10.234;2023-04-19T00:11:09;99241.66;;;8.85;65.97
66880;BME280;53789;51.392;10.234;2023-04-19T00:11:31;99234.28;;;8.86;66.58
66880;BME280;53789;51.392;10.234;2023-04-19T00:11:52;99238.63;;;8.87;66.67
66880;BME280;53789;51.392;10.234;2023-04-19T00:12:12;99237.00;;;8.86;67.20
66880;BME280;53789;51.392;10.234;2023-04-19T00:12:32;99229.59;;;8.87;66.05
66880;BME280;53789;51.392;10.234;2023-04-19T00:12:53;99238.38;;;8.89;66.69
66880;BME280;53789;51.392;10.234;2023-04-19T00:13:13;99234.53;;;8.90;66.73
66880;BME280;53789;51.392;10.234;2023-04-19T00:13:33;99239.22;;;8.89;66.78
66880;BME280;53789;51.392;10.234;2023-04-19T00:13:53;99230.97;;;8.89;64.93
66880;BME280;53789;51.392;10.234;2023-04-19T00:14:14;99237.28;;;8.90;65.60
66880;BME280;53789;51.392;10.234;2023-04-19T00:14:34;99231.78;;;8.90;66.56
66880;BME280;53789;51.392;10.234;2023-04-19T00:14:54;99226.31;;;8.90;65.52
66880;BME280;53789;51.392;10.234;2023-04-19T00:15:15;99227.13;;;8.90;65.27
66880;BME280;53789;51.392;10.234;2023-04-19T00:15:36;99227.97;;;8.91;65.20
66880;BME280;53789;51.392;10.234;2023-04-19T00:15:56;99227.97;;;8.91;63.93
66880;BME280;53789;51.392;10.234;2023-04-19T00:16:17;99225.50;;;8.89;65.44
66880;BME280;53789;51.392;10.234;2023-04-19T00:16:37;99226.31;;;8.90;66.02
66880;BME280;53789;51.392;10.234;2023-04-19T00:16:57;99228.78;;;8.91;66.37
66880;BME280;53789;51.392;10.234;2023-04-19T00:17:18;99228.78;;;8.91;65.88
66880;BME280;53789;51.392;10.234;2023-04-19T00:17:38;99230.44;;;8.92;66.01
66880;BME280;53789;51.392;10.234;2023-04-19T00:17:58;99226.03;;;8.91;65.69
66880;BME280;53789;51.392;10.234;2023-04-19T00:18:18;99230.16;;;8.94;66.69
66880;BME280;53789;51.392;10.234;2023-04-19T00:18:39;99225.75;;;8.93;65.58
66880;BME280;53789;51.392;10.234;2023-04-19T00:18:59;99226.31;;;8.95;66.21
66880;BME280;53789;51.392;10.234;2023-04-19T00:19:19;99226.56;;;8.93;64.51
66880;BME280;53789;51.392;10.234;2023-04-19T00:19:40;99221.66;;;8.95;65.88
66880;BME280;53789;51.392;10.234;2023-04-19T00:20:00;99228.22;;;8.94;65.65
66880;BME280;53789;51.392;10.234;2023-04-19T00:20:21;99229.88;;;8.95;65.64
66880;BME280;53789;51.392;10.234;2023-04-19T00:20:41;99229.06;;;8.95;65.59
66880;BME280;53789;51.392;10.234;2023-04-19T00:21:01;99230.69;;;8.96;65.62
66880;BME280;53789;51.392;10.234;2023-04-19T00:21:22;99227.97;;;8.96;64.95
66880;BME280;53789;51.392;10.234;2023-04-19T00:21:42;99225.22;;;8.96;65.10
66880;BME280;53789;51.392;10.234;2023-04-19T00:22:02;99223.59;;;8.95;65.57
66880;BME280;53789;51.392;10.234;2023-04-19T00:22:22;99229.88;;;8.95;66.03
66880;BME280;53789;51.392;10.234;2023-04-19T00:22:43;99234.56;;;8.95;65.89
66880;BME280;53789;51.392;10.234;2023-04-19T00:23:03;99229.88;;;8.95;65.39
66880;BME280;53789;51.392;10.234;2023-04-19T00:23:23;99234.56;;;8.95;65.65
66880;BME280;53789;51.392;10.234;2023-04-19T00:23:44;99226.31;;;8.95;65.41
66880;BME280;53789;51.392;10.234;2023-04-19T00:24:04;99227.97;;;8.96;66.20
66880;BME280;53789;51.392;10.234;2023-04-19T00:24:24;99227.97;;;8.96;65.80
66880;BME280;53789;51.392;10.234;2023-04-19T00:24:45;99227.97;;;8.96;65.41
66880;BME280;53789;51.392;10.234;2023-04-19T00:25:05;99225.22;;;8.96;65.14
66880;BME280;53789;51.392;10.234;2023-04-19T00:25:26;99229.63;;;8.97;65.29
66880;BME280;53789;51.392;10.234;2023-04-19T00:25:48;99227.69;;;8.97;65.62
66880;BME280;53789;51.392;10.234;2023-04-19T00:26:08;99227.69;;;8.97;65.49
66880;BME280;53789;51.392;10.234;2023-04-19T00:26:28;99230.44;;;8.97;65.36
66880;BME280;53789;51.392;10.234;2023-04-19T00:26:49;99224.13;;;8.97;64.41
66880;BME280;53789;51.392;10.234;2023-04-19T00:27:09;99227.69;;;8.97;63.79
66880;BME280;53789;51.392;10.234;2023-04-19T00:27:29;99224.13;;;8.97;64.25
66880;BME280;53789;51.392;10.234;2023-04-19T00:27:49;99226.06;;;8.96;64.43
66880;BME280;53789;51.392;10.234;2023-04-19T00:28:10;99224.41;;;8.95;64.99
66880;BME280;53789;51.392;10.234;2023-04-19T00:28:30;99227.16;;;8.95;64.99
66880;BME280;53789;51.392;10.234;2023-04-19T00:28:50;99226.31;;;8.95;64.78
66880;BME280;53789;51.392;10.234;2023-04-19T00:29:11;99219.19;;;8.94;65.20
66880;BME280;53789;51.392;10.234;2023-04-19T00:29:31;99219.19;;;8.94;64.61
66880;BME280;53789;51.392;10.234;2023-04-19T00:29:51;99226.56;;;8.93;65.65
66880;BME280;53789;51.392;10.234;2023-04-19T00:30:12;99224.66;;;8.94;65.75
66880;BME280;53789;51.392;10.234;2023-04-19T00:30:32;99214.78;;;8.93;65.98
66880;BME280;53789;51.392;10.234;2023-04-19T00:30:52;99221.09;;;8.93;64.97
66880;BME280;53789;51.392;10.234;2023-04-19T00:31:13;99224.94;;;8.92;65.13
66880;BME280;53789;51.392;10.234;2023-04-19T00:31:33;99219.47;;;8.92;64.61
66880;BME280;53789;51.392;10.234;2023-04-19T00:31:53;99224.94;;;8.92;65.38
66880;BME280;53789;51.392;10.234;2023-04-19T00:32:14;99220.28;;;8.93;65.81
66880;BME280;53789;51.392;10.234;2023-04-19T00:32:34;99221.09;;;8.93;64.81
66880;BME280;53789;51.392;10.234;2023-04-19T00:32:55;99213.97;;;8.92;65.56
66880;BME280;53789;51.392;10.234;2023-04-19T00:33:15;99219.47;;;8.92;65.37
66880;BME280;53789;51.392;10.234;2023-04-19T00:33:35;99218.34;;;8.93;65.26
66880;BME280;53789;51.392;10.234;2023-04-19T00:33:56;99216.72;;;8.92;66.17
66880;BME280;53789;51.392;10.234;2023-04-19T00:34:16;99224.94;;;8.92;65.40
66880;BME280;53789;51.392;10.234;2023-04-19T00:34:36;99221.09;;;8.93;65.60
66880;BME280;53789;51.392;10.234;2023-04-19T00:34:56;99224.66;;;8.94;64.34
66880;BME280;53789;51.392;10.234;2023-04-19T00:35:17;99224.94;;;8.92;64.74
66880;BME280;53789;51.392;10.234;2023-04-19T00:35:39;99222.19;;;8.92;64.79
66880;BME280;53789;51.392;10.234;2023-04-19T00:35:59;99218.63;;;8.92;65.08
66880;BME280;53789;51.392;10.234;2023-04-19T00:36:19;99222.47;;;8.91;64.67
66880;BME280;53789;51.392;10.234;2023-04-19T00:36:40;99224.09;;;8.92;65.25
66880;BME280;53789;51.392;10.234;2023-04-19T00:37:00;99224.38;;;8.90;65.34
66880;BME280;53789;51.392;10.234;2023-04-19T00:37:20;99218.88;;;8.90;65.08
66880;BME280;53789;51.392;10.234;2023-04-19T00:37:41;99219.72;;;8.91;64.88
66880;BME280;53789;51.392;10.234;2023-04-19T00:38:01;99222.47;;;8.91;66.11
66880;BME280;53789;51.392;10.234;2023-04-19T00:38:21;99218.88;;;8.90;63.89
66880;BME280;53789;51.392;10.234;2023-04-19T00:38:42;99221.63;;;8.90;65.35
66880;BME280;53789;51.392;10.234;2023-04-19T00:39:02;99217.00;;;8.91;65.32
66880;BME280;53789;51.392;10.234;2023-04-19T00:39:23;99220.81;;;8.90;64.96
66880;BME280;53789;51.392;10.234;2023-04-19T00:39:43;99217.25;;;8.89;65.00
66880;BME280;53789;51.392;10.234;2023-04-19T00:40:03;99218.06;;;8.90;66.11
66880;BME280;53789;51.392;10.234;2023-04-19T00:40:24;99220.00;;;8.89;64.64
66880;BME280;53789;51.392;10.234;2023-04-19T00:40:44;99216.41;;;8.89;64.42
66880;BME280;53789;51.392;10.234;2023-04-19T00:41:04;99223.03;;;8.88;65.57
66880;BME280;53789;51.392;10.234;2023-04-19T00:41:25;99210.13;;;8.88;64.74
66880;BME280;53789;51.392;10.234;2023-04-19T00:41:45;99209.31;;;8.88;64.26
66880;BME280;53789;51.392;10.234;2023-04-19T00:42:06;99212.31;;;8.86;64.55
66880;BME280;53789;51.392;10.234;2023-04-19T00:42:26;99215.06;;;8.86;64.85
66880;BME280;53789;51.392;10.234;2023-04-19T00:42:46;99208.72;;;8.85;63.15
66880;BME280;53789;51.392;10.234;2023-04-19T00:43:06;99212.59;;;8.84;63.49
66880;BME280;53789;51.392;10.234;2023-04-19T00:43:27;99208.19;;;8.83;64.58
66880;BME280;53789;51.392;10.234;2023-04-19T00:43:47;99217.22;;;8.84;64.40
66880;BME280;53789;51.392;10.234;2023-04-19T00:44:07;99212.03;;;8.82;64.94
66880;BME280;53789;51.392;10.234;2023-04-19T00:44:27;99209.28;;;8.82;65.58
66880;BME280;53789;51.392;10.234;2023-04-19T00:44:48;99207.38;;;8.83;65.37
66880;BME280;53789;51.392;10.234;2023-04-19T00:45:08;99216.69;;;8.82;64.49
66880;BME280;53789;51.392;10.234;2023-04-19T00:45:31;99206.53;;;8.82;65.23
66880;BME280;53789;51.392;10.234;2023-04-19T00:45:52;99212.28;;;8.81;64.34
66880;BME280;53789;51.392;10.234;2023-04-19T00:46:14;99213.94;;;8.82;65.21
66880;BME280;53789;51.392;10.234;2023-04-19T00:46:36;99212.28;;;8.81;65.20
66880;BME280;53789;51.392;10.234;2023-04-19T00:46:56;99215.59;;;8.83;64.66
66880;BME280;53789;51.392;10.234;2023-04-19T00:47:17;99213.94;;;8.82;64.93
66880;BME280;53789;51.392;10.234;2023-04-19T00:47:38;99209.28;;;8.82;64.53
66880;BME280;53789;51.392;10.234;2023-04-19T00:48:00;99211.22;;;8.82;64.47
66880;BME280;53789;51.392;10.234;2023-04-19T00:48:20;99214.22;;;8.80;63.85
66880;BME280;53789;51.392;10.234;2023-04-19T00:48:41;99209.81;;;8.79;64.52
66880;BME280;53789;51.392;10.234;2023-04-19T00:49:02;99211.75;;;8.79;63.58
66880;BME280;53789;51.392;10.234;2023-04-19T00:49:23;99213.66;;;8.78;63.90
66880;BME280;53789;51.392;10.234;2023-04-19T00:49:43;99208.16;;;8.78;65.20
66880;BME280;53789;51.392;10.234;2023-04-19T00:50:04;99221.88;;;8.78;64.54
66880;BME280;53789;51.392;10.234;2023-04-19T00:50:25;99215.59;;;8.78;63.79
66880;BME280;53789;51.392;10.234;2023-04-19T00:50:46;99204.88;;;8.76;64.58
66880;BME280;53789;51.392;10.234;2023-04-19T00:51:07;99209.56;;;8.76;64.06
66880;BME280;53789;51.392;10.234;2023-04-19T00:51:27;99209.56;;;8.76;64.39
66880;BME280;53789;51.392;10.234;2023-04-19T00:51:49;99205.97;;;8.75;63.41
66880;BME280;53789;51.392;10.234;2023-04-19T00:52:10;99208.72;;;8.75;64.43
66880;BME280;53789;51.392;10.234;2023-04-19T00:52:32;99210.38;;;8.76;63.46
66880;BME280;53789;51.392;10.234;2023-04-19T00:52:54;99208.72;;;8.75;64.63
66880;BME280;53789;51.392;10.234;2023-04-19T00:53:15;99200.75;;;8.74;64.42
66880;BME280;53789;51.392;10.234;2023-04-19T00:53:36;99200.75;;;8.74;62.87
66880;BME280;53789;51.392;10.234;2023-04-19T00:53:57;99200.75;;;8.74;64.57
66880;BME280;53789;51.392;10.234;2023-04-19T00:54:18;99201.88;;;8.73;63.04
66880;BME280;53789;51.392;10.234;2023-04-19T00:54:42;99202.13;;;8.71;63.97
66880;BME280;53789;51.392;10.234;2023-04-19T00:55:04;99202.13;;;8.71;64.42
66880;BME280;53789;51.392;10.234;2023-04-19T00:55:25;99199.41;;;8.71;64.23
66880;BME280;53789;51.392;10.234;2023-04-19T00:55:46;99201.28;;;8.71;64.84
66880;BME280;53789;51.392;10.234;2023-04-19T00:56:08;99196.91;;;8.70;65.01
66880;BME280;53789;51.392;10.234;2023-04-19T00:56:29;99200.47;;;8.70;64.95
66880;BME280;53789;51.392;10.234;2023-04-19T00:56:50;99206.78;;;8.71;64.76
66880;BME280;53789;51.392;10.234;2023-04-19T00:57:11;99200.47;;;8.70;65.69
66880;BME280;53789;51.392;10.234;2023-04-19T00:57:31;99195.00;;;8.70;64.99
66880;BME280;53789;51.392;10.234;2023-04-19T00:57:52;99202.38;;;8.70;64.52
66880;BME280;53789;51.392;10.234;2023-04-19T00:58:13;99201.28;;;8.71;65.22
66880;BME280;53789;51.392;10.234;2023-04-19T00:58:33;99196.91;;;8.70;65.30
66880;BME280;53789;51.392;10.234;2023-04-19T00:58:55;99195.00;;;8.70;64.52
66880;BME280;53789;51.392;10.234;2023-04-19T00:59:16;99194.16;;;8.70;65.23
66880;BME280;53789;51.392;10.234;2023-04-19T00:59:37;99195.81;;;8.71;65.50
66880;BME280;53789;51.392;10.234;2023-04-19T00:59:58;99201.28;;;8.71;64.78
66880;BME280;53789;51.392;10.234;2023-04-19T01:00:18;99201.56;;;8.69;64.80
66880;BME280;53789;51.392;10.234;2023-04-19T01:00:39;99193.34;;;8.69;64.34
66880;BME280;53789;51.392;10.234;2023-04-19T01:00:59;99198.81;;;8.69;65.23
66880;BME280;53789;51.392;10.234;2023-04-19T01:01:20;99201.56;;;8.69;65.18
66880;BME280;53789;51.392;10.234;2023-04-19T01:01:40;99201.56;;;8.69;64.74
66880;BME280;53789;51.392;10.234;2023-04-19T01:02:01;99199.63;;;8.70;65.83
66880;BME280;53789;51.392;10.234;2023-04-19T01:02:21;99199.63;;;8.70;64.61
66880;BME280;53789;51.392;10.234;2023-04-19T01:02:41;99201.56;;;8.69;65.67
66880;BME280;53789;51.392;10.234;2023-04-19T01:03:01;99197.16;;;8.68;64.21
66880;BME280;53789;51.392;10.234;2023-04-19T01:03:22;99200.75;;;8.69;64.77
66880;BME280;53789;51.392;10.234;2023-04-19T01:03:45;99205.13;;;8.70;65.72
66880;BME280;53789;51.392;10.234;2023-04-19T01:04:06;99196.91;;;8.70;65.14
66880;BME280;53789;51.392;10.234;2023-04-19T01:04:26;99205.13;;;8.70;64.53
66880;BME280;53789;51.392;10.234;2023-04-19T01:04:47;99199.91;;;8.68;63.46
66880;BME280;53789;51.392;10.234;2023-04-19T01:05:07;99195.53;;;8.67;63.02
66880;BME280;53789;51.392;10.234;2023-04-19T01:05:29;99198.81;;;8.69;63.85
66880;BME280;53789;51.392;10.234;2023-04-19T01:05:49;99207.06;;;8.69;64.74
66880;BME280;53789;51.392;10.234;2023-04-19T01:06:09;99196.34;;;8.67;64.31
66880;BME280;53789;51.392;10.234;2023-04-19T01:06:30;99190.88;;;8.67;64.44
66880;BME280;53789;51.392;10.234;2023-04-19T01:06:51;99197.44;;;8.66;64.62
66880;BME280;53789;51.392;10.234;2023-04-19T01:07:12;99196.63;;;8.66;64.89
66880;BME280;53789;51.392;10.234;2023-04-19T01:07:33;99191.97;;;8.66;64.20
66880;BME280;53789;51.392;10.234;2023-04-19T01:07:53;99200.19;;;8.66;63.92
66880;BME280;53789;51.392;10.234;2023-04-19T01:08:13;99199.38;;;8.66;64.52
66880;BME280;53789;51.392;10.234;2023-04-19T01:08:34;99201.28;;;8.65;64.84
66880;BME280;53789;51.392;10.234;2023-04-19T01:08:54;99204.03;;;8.65;63.87
66880;BME280;53789;51.392;10.234;2023-04-19T01:09:15;99197.72;;;8.65;65.01
66880;BME280;53789;51.392;10.234;2023-04-19T01:09:39;99197.72;;;8.65;65.15
66880;BME280;53789;51.392;10.234;2023-04-19T01:10:00;99201.28;;;8.65;65.14
66880;BME280;53789;51.392;10.234;2023-04-19T01:10:20;99193.06;;;8.65;65.07
66880;BME280;53789;51.392;10.234;2023-04-19T01:10:40;99194.97;;;8.65;64.73
66880;BME280;53789;51.392;10.234;2023-04-19T01:11:01;99199.38;;;8.66;64.71
66880;BME280;53789;51.392;10.234;2023-04-19T01:11:22;99190.59;;;8.64;64.63
66880;BME280;53789;51.392;10.234;2023-04-19T01:11:42;99193.06;;;8.65;65.20
66880;BME280;53789;51.392;10.234;2023-04-19T01:12:03;99190.59;;;8.64;64.13
66880;BME280;53789;51.392;10.234;2023-04-19T01:12:23;99189.75;;;8.63;64.54
66880;BME280;53789;51.392;10.234;2023-04-19T01:12:44;99195.25;;;8.63;65.01
66880;BME280;53789;51.392;10.234;2023-04-19T01:13:04;99199.63;;;8.64;64.31
66880;BME280;53789;51.392;10.234;2023-04-19T01:13:24;99190.59;;;8.64;64.43
66880;BME280;53789;51.392;10.234;2023-04-19T01:13:45;99193.34;;;8.64;64.91
66880;BME280;53789;51.392;10.234;2023-04-19T01:14:05;99196.09;;;8.64;65.64
66880;BME280;53789;51.392;10.234;2023-04-19T01:14:25;99197.16;;;8.63;65.38
66880;BME280;53789;51.392;10.234;2023-04-19T01:14:46;99192.50;;;8.63;64.52
66880;BME280;53789;51.392;10.234;2023-04-19T01:15:07;99192.50;;;8.63;65.52
66880;BME280;53789;51.392;10.234;2023-04-19T01:15:27;99195.50;;;8.62;64.70
66880;BME280;53789;51.392;10.234;2023-04-19T01:15:47;99191.97;;;8.61;65.37
66880;BME280;53789;51.392;10.234;2023-04-19T01:16:08;99196.63;;;8.61;64.94
66880;BME280;53789;51.392;10.234;2023-04-19T01:16:29;99197.44;;;8.61;65.18
66880;BME280;53789;51.392;10.234;2023-04-19T01:16:49;99198.25;;;8.62;64.39
66880;BME280;53789;51.392;10.234;2023-04-19T01:17:11;99194.69;;;8.61;65.51
66880;BME280;53789;51.392;10.234;2023-04-19T01:17:31;99191.16;;;8.61;64.87
66880;BME280;53789;51.392;10.234;2023-04-19T01:17:52;99193.88;;;8.61;65.07
66880;BME280;53789;51.392;10.234;2023-04-19T01:18:12;99199.38;;;8.61;65.55
66880;BME280;53789;51.392;10.234;2023-04-19T01:18:32;99198.25;;;8.62;65.63
66880;BME280;53789;51.392;10.234;2023-04-19T01:18:53;99200.19;;;8.61;64.78
66880;BME280;53789;51.392;10.234;2023-04-19T01:19:13;99197.44;;;8.61;66.08
66880;BME280;53789;51.392;10.234;2023-04-19T01:19:35;99202.94;;;8.61;65.55
66880;BME280;53789;51.392;10.234;2023-04-19T01:20:03;99202.38;;;8.59;64.54
66880;BME280;53789;51.392;10.234;2023-04-19T01:20:24;99207.03;;;8.59;64.22
66880;BME280;53789;51.392;10.234;2023-04-19T01:20:44;99198.53;;;8.60;64.89
66880;BME280;53789;51.392;10.234;2023-04-19T01:21:05;99196.91;;;8.59;64.25
66880;BME280;53789;51.392;10.234;2023-04-19T01:21:26;99200.72;;;8.58;64.03
66880;BME280;53789;51.392;10.234;2023-04-19T01:21:46;99204.28;;;8.59;64.25
66880;BME280;53789;51.392;10.234;2023-04-19T01:22:07;99206.22;;;8.58;63.68
66880;BME280;53789;51.392;10.234;2023-04-19T01:22:28;99201.81;;;8.57;64.57
66880;BME280;53789;51.392;10.234;2023-04-19T01:22:48;99210.03;;;8.57;63.92
66880;BME280;53789;51.392;10.234;2023-04-19T01:23:09;99200.16;;;8.56;63.18
66880;BME280;53789;51.392;10.234;2023-04-19T01:23:29;99202.09;;;8.56;64.38
66880;BME280;53789;51.392;10.234;2023-04-19T01:23:49;99206.47;;;8.57;63.71
66880;BME280;53789;51.392;10.234;2023-04-19T01:24:10;99204.00;;;8.55;64.29
66880;BME280;53789;51.392;10.234;2023-04-19T01:24:30;99200.69;;;8.53;63.48
66880;BME280;53789;51.392;10.234;2023-04-19T01:24:50;99204.00;;;8.55;63.39
66880;BME280;53789;51.392;10.234;2023-04-19T01:25:10;99209.50;;;8.55;63.53
66880;BME280;53789;51.392;10.234;2023-04-19T01:25:31;99205.09;;;8.54;63.34
66880;BME280;53789;51.392;10.234;2023-04-19T01:25:51;99205.09;;;8.54;64.60
66880;BME280;53789;51.392;10.234;2023-04-19T01:26:11;99209.50;;;8.55;64.17
66880;BME280;53789;51.392;10.234;2023-04-19T01:26:32;99200.44;;;8.55;64.25
66880;BME280;53789;51.392;10.234;2023-04-19T01:26:52;99201.28;;;8.55;65.38
66880;BME280;53789;51.392;10.234;2023-04-19T01:27:12;99204.81;;;8.56;65.01
66880;BME280;53789;51.392;10.234;2023-04-19T01:27:33;99207.84;;;8.54;65.53
66880;BME280;53789;51.392;10.234;2023-04-19T01:27:53;99208.66;;;8.55;65.09
66880;BME280;53789;51.392;10.234;2023-04-19T01:28:13;99205.91;;;8.55;64.79
66880;BME280;53789;51.392;10.234;2023-04-19T01:28:33;99211.41;;;8.55;64.63
66880;BME280;53789;51.392;10.234;2023-04-19T01:28:54;99209.50;;;8.55;65.26
66880;BME280;53789;51.392;10.234;2023-04-19T01:29:14;99213.06;;;8.56;64.58
66880;BME280;53789;51.392;10.234;2023-04-19T01:29:34;99208.66;;;8.55;64.62
66880;BME280;53789;51.392;10.234;2023-04-19T01:29:55;99205.09;;;8.54;64.04
66880;BME280;53789;51.392;10.234;2023-04-19T01:30:15;99198.53;;;8.55;64.79
66880;BME280;53789;51.392;10.234;2023-04-19T01:30:36;99207.03;;;8.54;64.59
66880;BME280;53789;51.392;10.234;2023-04-19T01:30:56;99208.91;;;8.53;63.93
66880;BME280;53789;51.392;10.234;2023-04-19T01:31:17;99201.53;;;8.54;64.36
66880;BME280;53789;51.392;10.234;2023-04-19T01:31:37;99205.38;;;8.53;64.14
66880;BME280;53789;51.392;10.234;2023-04-19T01:31:57;99205.38;;;8.53;62.96
66880;BME280;53789;51.392;10.234;2023-04-19T01:32:17;99199.06;;;8.52;62.98
66880;BME280;53789;51.392;10.234;2023-04-19T01:32:38;99210.84;;;8.53;63.73
66880;BME280;53789;51.392;10.234;2023-04-19T01:32:58;99202.91;;;8.51;63.37
66880;BME280;53789;51.392;10.234;2023-04-19T01:33:21;99198.22;;;8.52;64.27
66880;BME280;53789;51.392;10.234;2023-04-19T01:33:42;99200.16;;;8.51;64.20
66880;BME280;53789;51.392;10.234;2023-04-19T01:34:02;99204.81;;;8.51;64.32
66880;BME280;53789;51.392;10.234;2023-04-19T01:34:22;99203.72;;;8.52;64.05
66880;BME280;53789;51.392;10.234;2023-04-19T01:34:43;99205.63;;;8.51;64.27
66880;BME280;53789;51.392;10.234;2023-04-19T01:35:04;99201.25;;;8.50;62.56
66880;BME280;53789;51.392;10.234;2023-04-19T01:35:24;99202.09;;;8.51;63.17
66880;BME280;53789;51.392;10.234;2023-04-19T01:35:46;99201.25;;;8.50;63.41
66880;BME280;53789;51.392;10.234;2023-04-19T01:36:07;99202.34;;;8.49;63.57
66880;BME280;53789;51.392;10.234;2023-04-19T01:36:27;99203.16;;;8.49;63.94
66880;BME280;53789;51.392;10.234;2023-04-19T01:36:48;99200.41;;;8.49;62.94
66880;BME280;53789;51.392;10.234;2023-04-19T01:37:08;99198.50;;;8.50;63.37
66880;BME280;53789;51.392;10.234;2023-04-19T01:37:28;99192.47;;;8.48;62.64
66880;BME280;53789;51.392;10.234;2023-04-19T01:37:48;99193.28;;;8.48;63.83
66880;BME280;53789;51.392;10.234;2023-04-19T01:38:09;99199.63;;;8.49;63.65
66880;BME280;53789;51.392;10.234;2023-04-19T01:38:29;99194.41;;;8.47;62.89
66880;BME280;53789;51.392;10.234;2023-04-19T01:38:49;99201.78;;;8.47;63.05
66880;BME280;53789;51.392;10.234;2023-04-19T01:39:10;99187.53;;;8.45;61.47
66880;BME280;53789;51.392;10.234;2023-04-19T01:39:30;99196.56;;;8.45;62.88
66880;BME280;53789;51.392;10.234;2023-04-19T01:39:50;99191.09;;;8.45;61.62
66880;BME280;53789;51.392;10.234;2023-04-19T01:40:11;99194.63;;;8.46;62.12
66880;BME280;53789;51.392;10.234;2023-04-19T01:40:32;99196.56;;;8.45;63.04
66880;BME280;53789;51.392;10.234;2023-04-19T01:40:52;99189.69;;;8.43;63.48
66880;BME280;53789;51.392;10.234;2023-04-19T01:41:12;99186.13;;;8.42;63.57
66880;BME280;53789;51.392;10.234;2023-04-19T01:41:33;99189.69;;;8.43;63.17
66880;BME280;53789;51.392;10.234;2023-04-19T01:41:53;99194.38;;;8.42;62.81
66880;BME280;53789;51.392;10.234;2023-04-19T01:42:13;99193.56;;;8.42;62.31
66880;BME280;53789;51.392;10.234;2023-04-19T01:42:34;99188.34;;;8.40;62.09
66880;BME280;53789;51.392;10.234;2023-04-19T01:42:54;99189.16;;;8.41;62.15
66880;BME280;53789;51.392;10.234;2023-04-19T01:43:16;99189.41;;;8.39;61.81
66880;BME280;53789;51.392;10.234;2023-04-19T01:43:36;99182.00;;;8.40;61.71
66880;BME280;53789;51.392;10.234;2023-04-19T01:43:56;99184.22;;;8.38;62.75
66880;BME280;53789;51.392;10.234;2023-04-19T01:44:17;99186.94;;;8.38;62.70
66880;BME280;53789;51.392;10.234;2023-04-19T01:44:37;99189.16;;;8.36;62.33
66880;BME280;53789;51.392;10.234;2023-04-19T01:44:57;99189.16;;;8.36;62.67
66880;BME280;53789;51.392;10.234;2023-04-19T01:45:18;99177.34;;;8.35;63.71
66880;BME280;53789;51.392;10.234;2023-04-19T01:45:39;99186.41;;;8.36;63.83
66880;BME280;53789;51.392;10.234;2023-04-19T01:45:59;99192.97;;;8.35;62.99
66880;BME280;53789;51.392;10.234;2023-04-19T01:46:19;99188.31;;;8.35;62.66
66880;BME280;53789;51.392;10.234;2023-04-19T01:46:39;99182.28;;;8.33;63.38
66880;BME280;53789;51.392;10.234;2023-04-19T01:47:00;99191.31;;;8.34;62.49
66880;BME280;53789;51.392;10.234;2023-04-19T01:47:20;99194.06;;;8.34;62.68
66880;BME280;53789;51.392;10.234;2023-04-19T01:47:40;99186.09;;;8.32;63.05
66880;BME280;53789;51.392;10.234;2023-04-19T01:48:04;99185.28;;;8.31;63.82
66880;BME280;53789;51.392;10.234;2023-04-19T01:48:24;99182.56;;;8.31;64.44
66880;BME280;53789;51.392;10.234;2023-04-19T01:48:44;99187.19;;;8.31;64.26
66880;BME280;53789;51.392;10.234;2023-04-19T01:49:05;99184.19;;;8.32;64.50